sensor_id;sensor_type;location;lat;lon;timestamp;P1;durP1;ratioP1;P2;durP2;ratioP2
41631;SDS011;37452;51.938;4.624;2022-12-18T00:01:35;61.13;;;20.65;;
41631;SDS011;37452;51.938;4.624;2022-12-18T00:04:02;61.17;;;19.23;;
41631;SDS011;37452;51.938;4.624;2022-12-18T00:06:29;63.20;;;20.47;;
41631;SDS011;37452;51.938;4.624;2022-12-18T00:08:56;64.65;;;21.30;;
41631;SDS011;37452;51.938;4.624;2022-12-18T00:11:23;65.77;;;20.77;;
41631;SDS011;37452;51.938;4.624;2022-12-18T00:13:51;64.03;;;21.40;;
41631;SDS011;37452;51.938;4.624;2022-12-18T00:16:19;78.33;;;24.00;;
41631;SDS011;37452;51.938;4.624;2022-12-18T00:18:46;72.67;;;22.80;;
41631;SDS011;37452;51.938;4.624;2022-12-18T00:21:12;71.37;;;21.50;;
41631;SDS011;37452;51.938;4.624;2022-12-18T00:23:39;63.23;;;20.87;;
41631;SDS011;37452;51.938;4.624;2022-12-18T00:26:10;87.37;;;22.23;;
41631;SDS011;37452;51.938;4.624;2022-12-18T00:28:59;74.70;;;20.17;;
41631;SDS011;37452;51.938;4.624;2022-12-18T00:31:26;59.03;;;20.30;;
41631;SDS011;37452;51.938;4.624;2022-12-18T00:33:55;69.15;;;21.33;;
41631;SDS011;37452;51.938;4.624;2022-12-18T00:36:28;69.47;;;21.47;;
41631;SDS011;37452;51.938;4.624;2022-12-18T00:38:56;67.93;;;20.00;;
41631;SDS011;37452;51.938;4.624;2022-12-18T00:41:23;71.87;;;22.73;;
41631;SDS011;37452;51.938;4.624;2022-12-18T00:44:07;61.13;;;21.73;;
41631;SDS011;37452;51.938;4.624;2022-12-18T00:46:35;56.23;;;19.60;;
41631;SDS011;37452;51.938;4.624;2022-12-18T00:49:01;73.57;;;21.33;;
41631;SDS011;37452;51.938;4.624;2022-12-18T00:51:27;70.53;;;20.33;;
41631;SDS011;37452;51.938;4.624;2022-12-18T00:53:53;69.67;;;20.30;;
41631;SDS011;37452;51.938;4.624;2022-12-18T00:56:19;68.03;;;21.73;;
41631;SDS011;37452;51.938;4.624;2022-12-18T00:58:47;75.20;;;21.53;;
41631;SDS011;37452;51.938;4.624;2022-12-18T01:01:13;78.95;;;21.65;;
41631;SDS011;37452;51.938;4.624;2022-12-18T01:06:05;51.00;;;19.67;;
41631;SDS011;37452;51.938;4.624;2022-12-18T01:08:32;62.17;;;21.00;;
41631;SDS011;37452;51.938;4.624;2022-12-18T01:10:58;76.82;;;24.17;;
41631;SDS011;37452;51.938;4.624;2022-12-18T01:13:23;67.57;;;23.02;;
41631;SDS011;37452;51.938;4.624;2022-12-18T01:15:50;72.10;;;22.00;;
41631;SDS011;37452;51.938;4.624;2022-12-18T01:18:15;70.17;;;22.13;;
41631;SDS011;37452;51.938;4.624;2022-12-18T01:20:41;85.55;;;20.35;;
41631;SDS011;37452;51.938;4.624;2022-12-18T01:23:06;100.75;;;21.30;;
41631;SDS011;37452;51.938;4.624;2022-12-18T01:25:32;84.03;;;18.80;;
41631;SDS011;37452;51.938;4.624;2022-12-18T01:27:57;89.22;;;19.52;;
41631;SDS011;37452;51.938;4.624;2022-12-18T01:30:23;67.03;;;18.83;;
41631;SDS011;37452;51.938;4.624;2022-12-18T01:32:49;65.97;;;18.05;;
41631;SDS011;37452;51.938;4.624;2022-12-18T01:35:14;68.80;;;19.55;;
41631;SDS011;37452;51.938;4.624;2022-12-18T01:37:40;67.57;;;18.73;;
41631;SDS011;37452;51.938;4.624;2022-12-18T01:40:05;50.00;;;18.00;;
41631;SDS011;37452;51.938;4.624;2022-12-18T01:42:31;50.17;;;18.33;;
41631;SDS011;37452;51.938;4.624;2022-12-18T01:45:02;83.72;;;17.90;;
41631;SDS011;37452;51.938;4.624;2022-12-18T01:50:19;56.00;;;16.30;;
41631;SDS011;37452;51.938;4.624;2022-12-18T01:52:47;63.00;;;18.80;;
41631;SDS011;37452;51.938;4.624;2022-12-18T01:55:18;49.03;;;15.23;;
41631;SDS011;37452;51.938;4.624;2022-12-18T01:57:47;54.90;;;17.77;;
41631;SDS011;37452;51.938;4.624;2022-12-18T02:00:14;55.50;;;17.20;;
41631;SDS011;37452;51.938;4.624;2022-12-18T02:02:47;62.87;;;18.50;;
41631;SDS011;37452;51.938;4.624;2022-12-18T02:05:44;60.30;;;16.43;;
41631;SDS011;37452;51.938;4.624;2022-12-18T02:11:20;48.23;;;16.13;;
41631;SDS011;37452;51.938;4.624;2022-12-18T02:16:51;52.37;;;15.70;;
41631;SDS011;37452;51.938;4.624;2022-12-18T02:22:36;48.30;;;18.50;;
41631;SDS011;37452;51.938;4.624;2022-12-18T02:28:00;54.17;;;17.00;;
41631;SDS011;37452;51.938;4.624;2022-12-18T02:30:30;67.70;;;17.80;;
41631;SDS011;37452;51.938;4.624;2022-12-18T02:32:59;49.67;;;17.10;;
41631;SDS011;37452;51.938;4.624;2022-12-18T02:35:27;62.97;;;19.03;;
41631;SDS011;37452;51.938;4.624;2022-12-18T02:37:55;58.97;;;17.57;;
41631;SDS011;37452;51.938;4.624;2022-12-18T02:40:21;61.83;;;18.20;;
41631;SDS011;37452;51.938;4.624;2022-12-18T02:42:49;68.10;;;17.30;;
41631;SDS011;37452;51.938;4.624;2022-12-18T02:45:15;70.13;;;15.25;;
41631;SDS011;37452;51.938;4.624;2022-12-18T02:47:42;63.97;;;18.43;;
41631;SDS011;37452;51.938;4.624;2022-12-18T02:53:01;64.77;;;17.53;;
41631;SDS011;37452;51.938;4.624;2022-12-18T03:01:30;68.07;;;17.07;;
41631;SDS011;37452;51.938;4.624;2022-12-18T03:07:07;41.03;;;14.00;;
41631;SDS011;37452;51.938;4.624;2022-12-18T03:09:39;61.83;;;17.50;;
41631;SDS011;37452;51.938;4.624;2022-12-18T03:12:27;58.67;;;18.57;;
41631;SDS011;37452;51.938;4.624;2022-12-18T03:17:38;47.13;;;16.77;;
41631;SDS011;37452;51.938;4.624;2022-12-18T03:20:11;52.10;;;18.30;;
41631;SDS011;37452;51.938;4.624;2022-12-18T03:22:39;47.80;;;16.83;;
41631;SDS011;37452;51.938;4.624;2022-12-18T03:25:09;47.47;;;17.20;;
41631;SDS011;37452;51.938;4.624;2022-12-18T03:27:40;51.47;;;16.67;;
41631;SDS011;37452;51.938;4.624;2022-12-18T03:30:10;61.47;;;15.77;;
41631;SDS011;37452;51.938;4.624;2022-12-18T03:32:47;61.23;;;18.73;;
41631;SDS011;37452;51.938;4.624;2022-12-18T03:35:18;52.47;;;15.27;;
41631;SDS011;37452;51.938;4.624;2022-12-18T03:37:47;51.30;;;17.37;;
41631;SDS011;37452;51.938;4.624;2022-12-18T03:45:36;31.93;;;13.13;;
41631;SDS011;37452;51.938;4.624;2022-12-18T03:56:12;38.67;;;15.60;;
41631;SDS011;37452;51.938;4.624;2022-12-18T03:58:40;45.90;;;16.00;;
41631;SDS011;37452;51.938;4.624;2022-12-18T04:01:08;42.20;;;16.53;;
41631;SDS011;37452;51.938;4.624;2022-12-18T04:03:37;37.53;;;15.97;;
41631;SDS011;37452;51.938;4.624;2022-12-18T04:06:03;41.38;;;16.30;;
41631;SDS011;37452;51.938;4.624;2022-12-18T04:08:30;42.10;;;17.20;;
41631;SDS011;37452;51.938;4.624;2022-12-18T04:10:56;41.50;;;16.43;;
41631;SDS011;37452;51.938;4.624;2022-12-18T04:13:23;45.30;;;16.63;;
41631;SDS011;37452;51.938;4.624;2022-12-18T04:15:52;36.97;;;14.57;;
41631;SDS011;37452;51.938;4.624;2022-12-18T04:18:18;39.92;;;16.05;;
41631;SDS011;37452;51.938;4.624;2022-12-18T04:20:43;39.72;;;14.43;;
41631;SDS011;37452;51.938;4.624;2022-12-18T04:23:09;41.50;;;15.07;;
41631;SDS011;37452;51.938;4.624;2022-12-18T04:25:34;38.15;;;14.02;;
41631;SDS011;37452;51.938;4.624;2022-12-18T04:28:00;39.08;;;14.25;;
41631;SDS011;37452;51.938;4.624;2022-12-18T04:30:25;32.42;;;13.23;;
41631;SDS011;37452;51.938;4.624;2022-12-18T04:32:51;36.58;;;14.13;;
41631;SDS011;37452;51.938;4.624;2022-12-18T04:35:16;36.20;;;14.88;;
41631;SDS011;37452;51.938;4.624;2022-12-18T04:37:42;31.05;;;12.95;;
41631;SDS011;37452;51.938;4.624;2022-12-18T04:40:07;34.22;;;14.50;;
41631;SDS011;37452;51.938;4.624;2022-12-18T04:44:59;34.20;;;14.23;;
41631;SDS011;37452;51.938;4.624;2022-12-18T04:47:24;33.55;;;13.07;;
41631;SDS011;37452;51.938;4.624;2022-12-18T04:49:50;43.05;;;15.07;;
41631;SDS011;37452;51.938;4.624;2022-12-18T04:52:15;36.47;;;14.35;;
41631;SDS011;37452;51.938;4.624;2022-12-18T04:54:41;38.95;;;14.57;;
41631;SDS011;37452;51.938;4.624;2022-12-18T04:57:06;32.78;;;13.70;;
41631;SDS011;37452;51.938;4.624;2022-12-18T04:59:32;35.40;;;14.98;;
41631;SDS011;37452;51.938;4.624;2022-12-18T05:01:57;43.78;;;15.40;;
41631;SDS011;37452;51.938;4.624;2022-12-18T05:04:23;37.55;;;14.70;;
41631;SDS011;37452;51.938;4.624;2022-12-18T05:06:48;37.70;;;14.85;;
41631;SDS011;37452;51.938;4.624;2022-12-18T05:09:14;40.25;;;15.57;;
41631;SDS011;37452;51.938;4.624;2022-12-18T05:11:39;32.50;;;14.35;;
41631;SDS011;37452;51.938;4.624;2022-12-18T05:14:05;35.70;;;13.57;;
41631;SDS011;37452;51.938;4.624;2022-12-18T05:16:30;34.53;;;13.93;;
41631;SDS011;37452;51.938;4.624;2022-12-18T05:18:56;36.05;;;14.20;;
41631;SDS011;37452;51.938;4.624;2022-12-18T05:21:22;34.65;;;15.52;;
41631;SDS011;37452;51.938;4.624;2022-12-18T05:23:47;36.00;;;14.02;;
41631;SDS011;37452;51.938;4.624;2022-12-18T05:26:17;33.20;;;14.32;;
41631;SDS011;37452;51.938;4.624;2022-12-18T05:28:43;33.87;;;13.97;;
41631;SDS011;37452;51.938;4.624;2022-12-18T05:31:09;33.50;;;13.43;;
41631;SDS011;37452;51.938;4.624;2022-12-18T05:33:35;31.80;;;13.70;;
41631;SDS011;37452;51.938;4.624;2022-12-18T05:36:01;35.33;;;14.50;;
41631;SDS011;37452;51.938;4.624;2022-12-18T05:38:27;35.93;;;14.40;;
41631;SDS011;37452;51.938;4.624;2022-12-18T05:40:55;37.70;;;14.67;;
41631;SDS011;37452;51.938;4.624;2022-12-18T05:43:21;33.97;;;14.05;;
41631;SDS011;37452;51.938;4.624;2022-12-18T05:45:48;31.47;;;12.73;;
41631;SDS011;37452;51.938;4.624;2022-12-18T05:48:14;31.30;;;13.20;;
41631;SDS011;37452;51.938;4.624;2022-12-18T05:50:41;35.17;;;14.53;;
41631;SDS011;37452;51.938;4.624;2022-12-18T05:53:08;33.93;;;14.07;;
41631;SDS011;37452;51.938;4.624;2022-12-18T05:55:34;34.45;;;13.10;;
41631;SDS011;37452;51.938;4.624;2022-12-18T05:58:03;34.20;;;13.93;;
41631;SDS011;37452;51.938;4.624;2022-12-18T06:00:29;26.87;;;12.23;;
41631;SDS011;37452;51.938;4.624;2022-12-18T06:02:57;34.63;;;12.33;;
41631;SDS011;37452;51.938;4.624;2022-12-18T06:07:48;26.30;;;11.70;;
41631;SDS011;37452;51.938;4.624;2022-12-18T06:10:13;30.83;;;11.93;;
41631;SDS011;37452;51.938;4.624;2022-12-18T06:12:39;29.17;;;12.27;;
41631;SDS011;37452;51.938;4.624;2022-12-18T06:15:05;29.52;;;11.98;;
41631;SDS011;37452;51.938;4.624;2022-12-18T06:17:31;25.05;;;10.98;;
41631;SDS011;37452;51.938;4.624;2022-12-18T06:19:57;32.00;;;12.00;;
41631;SDS011;37452;51.938;4.624;2022-12-18T06:22:23;28.35;;;11.55;;
41631;SDS011;37452;51.938;4.624;2022-12-18T06:24:48;25.13;;;11.38;;
41631;SDS011;37452;51.938;4.624;2022-12-18T06:27:14;28.30;;;11.10;;
41631;SDS011;37452;51.938;4.624;2022-12-18T06:29:40;26.45;;;10.82;;
41631;SDS011;37452;51.938;4.624;2022-12-18T06:32:05;23.77;;;10.77;;
41631;SDS011;37452;51.938;4.624;2022-12-18T06:34:31;21.83;;;10.93;;
41631;SDS011;37452;51.938;4.624;2022-12-18T06:36:58;27.13;;;11.03;;
41631;SDS011;37452;51.938;4.624;2022-12-18T06:39:24;24.27;;;10.23;;
41631;SDS011;37452;51.938;4.624;2022-12-18T06:41:52;23.77;;;10.73;;
41631;SDS011;37452;51.938;4.624;2022-12-18T06:46:42;21.93;;;9.00;;
41631;SDS011;37452;51.938;4.624;2022-12-18T06:49:08;25.20;;;10.77;;
41631;SDS011;37452;51.938;4.624;2022-12-18T06:51:34;26.48;;;10.68;;
41631;SDS011;37452;51.938;4.624;2022-12-18T06:54:00;23.30;;;10.50;;
41631;SDS011;37452;51.938;4.624;2022-12-18T06:56:26;22.83;;;10.80;;
41631;SDS011;37452;51.938;4.624;2022-12-18T06:58:51;27.75;;;9.70;;
41631;SDS011;37452;51.938;4.624;2022-12-18T07:01:17;20.00;;;10.00;;
41631;SDS011;37452;51.938;4.624;2022-12-18T07:03:43;22.60;;;10.20;;
41631;SDS011;37452;51.938;4.624;2022-12-18T07:06:15;21.55;;;9.80;;
41631;SDS011;37452;51.938;4.624;2022-12-18T07:08:43;23.53;;;11.00;;
41631;SDS011;37452;51.938;4.624;2022-12-18T07:11:09;27.17;;;11.63;;
41631;SDS011;37452;51.938;4.624;2022-12-18T07:16:07;25.57;;;9.83;;
41631;SDS011;37452;51.938;4.624;2022-12-18T07:18:34;25.40;;;10.30;;
41631;SDS011;37452;51.938;4.624;2022-12-18T07:23:29;20.20;;;9.87;;
41631;SDS011;37452;51.938;4.624;2022-12-18T07:26:00;21.30;;;9.90;;
41631;SDS011;37452;51.938;4.624;2022-12-18T07:28:27;21.83;;;9.73;;
41631;SDS011;37452;51.938;4.624;2022-12-18T07:33:17;21.23;;;10.30;;
41631;SDS011;37452;51.938;4.624;2022-12-18T07:35:43;21.85;;;9.95;;
41631;SDS011;37452;51.938;4.624;2022-12-18T07:38:08;21.00;;;9.00;;
41631;SDS011;37452;51.938;4.624;2022-12-18T07:40:34;21.50;;;10.80;;
41631;SDS011;37452;51.938;4.624;2022-12-18T07:42:59;21.30;;;9.07;;
41631;SDS011;37452;51.938;4.624;2022-12-18T07:47:50;16.73;;;8.77;;
41631;SDS011;37452;51.938;4.624;2022-12-18T07:52:41;21.20;;;8.97;;
41631;SDS011;37452;51.938;4.624;2022-12-18T07:57:32;15.87;;;8.57;;
41631;SDS011;37452;51.938;4.624;2022-12-18T07:59:58;23.02;;;9.98;;
41631;SDS011;37452;51.938;4.624;2022-12-18T08:02:23;18.92;;;9.77;;
41631;SDS011;37452;51.938;4.624;2022-12-18T08:04:49;17.30;;;7.95;;
41631;SDS011;37452;51.938;4.624;2022-12-18T08:07:14;19.80;;;9.02;;
41631;SDS011;37452;51.938;4.624;2022-12-18T08:09:40;24.08;;;10.45;;
41631;SDS011;37452;51.938;4.624;2022-12-18T08:12:05;24.95;;;10.10;;
41631;SDS011;37452;51.938;4.624;2022-12-18T08:14:31;21.27;;;9.27;;
41631;SDS011;37452;51.938;4.624;2022-12-18T08:16:56;23.40;;;10.00;;
41631;SDS011;37452;51.938;4.624;2022-12-18T08:21:48;15.87;;;7.73;;
41631;SDS011;37452;51.938;4.624;2022-12-18T08:24:13;18.77;;;8.67;;
41631;SDS011;37452;51.938;4.624;2022-12-18T08:26:39;20.40;;;9.40;;
41631;SDS011;37452;51.938;4.624;2022-12-18T08:29:04;24.02;;;12.15;;
41631;SDS011;37452;51.938;4.624;2022-12-18T08:31:30;23.90;;;10.65;;
41631;SDS011;37452;51.938;4.624;2022-12-18T08:33:56;20.38;;;9.10;;
41631;SDS011;37452;51.938;4.624;2022-12-18T08:36:22;20.60;;;10.23;;
41631;SDS011;37452;51.938;4.624;2022-12-18T08:38:49;25.20;;;10.50;;
41631;SDS011;37452;51.938;4.624;2022-12-18T08:41:15;25.15;;;10.23;;
41631;SDS011;37452;51.938;4.624;2022-12-18T08:43:41;21.77;;;9.10;;
41631;SDS011;37452;51.938;4.624;2022-12-18T08:46:26;19.20;;;8.80;;
41631;SDS011;37452;51.938;4.624;2022-12-18T08:48:55;21.90;;;9.20;;
41631;SDS011;37452;51.938;4.624;2022-12-18T08:51:21;22.02;;;9.90;;
41631;SDS011;37452;51.938;4.624;2022-12-18T08:53:47;18.98;;;8.93;;
41631;SDS011;37452;51.938;4.624;2022-12-18T08:56:13;20.63;;;9.50;;
41631;SDS011;37452;51.938;4.624;2022-12-18T08:58:39;19.33;;;8.73;;
41631;SDS011;37452;51.938;4.624;2022-12-18T09:01:06;15.43;;;7.75;;
41631;SDS011;37452;51.938;4.624;2022-12-18T09:03:34;17.23;;;8.17;;
41631;SDS011;37452;51.938;4.624;2022-12-18T09:08:26;18.37;;;8.07;;
41631;SDS011;37452;51.938;4.624;2022-12-18T09:10:51;17.88;;;8.82;;
41631;SDS011;37452;51.938;4.624;2022-12-18T09:13:17;20.50;;;10.05;;
41631;SDS011;37452;51.938;4.624;2022-12-18T09:15:51;15.80;;;8.87;;
41631;SDS011;37452;51.938;4.624;2022-12-18T09:18:18;16.93;;;8.53;;
41631;SDS011;37452;51.938;4.624;2022-12-18T09:20:45;17.60;;;8.77;;
41631;SDS011;37452;51.938;4.624;2022-12-18T09:23:11;21.40;;;9.02;;
41631;SDS011;37452;51.938;4.624;2022-12-18T09:25:38;20.53;;;10.57;;
41631;SDS011;37452;51.938;4.624;2022-12-18T09:30:30;14.30;;;6.68;;
41631;SDS011;37452;51.938;4.624;2022-12-18T09:32:58;19.50;;;9.53;;
41631;SDS011;37452;51.938;4.624;2022-12-18T09:35:24;25.58;;;9.65;;
41631;SDS011;37452;51.938;4.624;2022-12-18T09:37:49;20.83;;;8.60;;
41631;SDS011;37452;51.938;4.624;2022-12-18T09:40:19;20.52;;;8.70;;
41631;SDS011;37452;51.938;4.624;2022-12-18T09:42:48;22.50;;;9.83;;
41631;SDS011;37452;51.938;4.624;2022-12-18T09:45:20;18.33;;;9.13;;
41631;SDS011;37452;51.938;4.624;2022-12-18T09:47:46;20.88;;;10.00;;
41631;SDS011;37452;51.938;4.624;2022-12-18T09:50:29;16.00;;;9.20;;
41631;SDS011;37452;51.938;4.624;2022-12-18T09:52:57;19.40;;;9.87;;
41631;SDS011;37452;51.938;4.624;2022-12-18T09:58:18;18.77;;;8.97;;
41631;SDS011;37452;51.938;4.624;2022-12-18T10:00:51;19.17;;;8.70;;
41631;SDS011;37452;51.938;4.624;2022-12-18T10:03:18;21.77;;;9.13;;
41631;SDS011;37452;51.938;4.624;2022-12-18T10:08:45;16.00;;;8.50;;
41631;SDS011;37452;51.938;4.624;2022-12-18T10:16:56;19.77;;;10.37;;
41631;SDS011;37452;51.938;4.624;2022-12-18T10:19:39;23.27;;;9.80;;
41631;SDS011;37452;51.938;4.624;2022-12-18T10:25:34;21.63;;;10.33;;
41631;SDS011;37452;51.938;4.624;2022-12-18T10:27:43;21.47;;;9.53;;
41631;SDS011;37452;51.938;4.624;2022-12-18T10:30:13;19.52;;;8.93;;
41631;SDS011;37452;51.938;4.624;2022-12-18T10:32:40;26.13;;;10.30;;
41631;SDS011;37452;51.938;4.624;2022-12-18T10:35:18;20.02;;;10.13;;
41631;SDS011;37452;51.938;4.624;2022-12-18T10:40:32;19.60;;;9.53;;
41631;SDS011;37452;51.938;4.624;2022-12-18T10:43:12;20.63;;;8.83;;
41631;SDS011;37452;51.938;4.624;2022-12-18T10:45:40;18.37;;;9.57;;
41631;SDS011;37452;51.938;4.624;2022-12-18T10:48:19;18.50;;;9.03;;
41631;SDS011;37452;51.938;4.624;2022-12-18T10:50:47;21.47;;;10.10;;
41631;SDS011;37452;51.938;4.624;2022-12-18T10:53:19;21.80;;;9.90;;
41631;SDS011;37452;51.938;4.624;2022-12-18T10:55:48;19.77;;;9.27;;
41631;SDS011;37452;51.938;4.624;2022-12-18T11:01:02;16.73;;;8.87;;
41631;SDS011;37452;51.938;4.624;2022-12-18T11:03:41;18.17;;;9.87;;
41631;SDS011;37452;51.938;4.624;2022-12-18T11:06:20;19.20;;;10.03;;
41631;SDS011;37452;51.938;4.624;2022-12-18T11:09:02;24.23;;;10.43;;
41631;SDS011;37452;51.938;4.624;2022-12-18T11:11:30;20.43;;;10.03;;
41631;SDS011;37452;51.938;4.624;2022-12-18T11:14:13;17.73;;;9.73;;
41631;SDS011;37452;51.938;4.624;2022-12-18T11:16:46;23.77;;;9.53;;
41631;SDS011;37452;51.938;4.624;2022-12-18T11:22:19;20.10;;;9.90;;
41631;SDS011;37452;51.938;4.624;2022-12-18T11:27:41;18.17;;;9.63;;
41631;SDS011;37452;51.938;4.624;2022-12-18T11:33:09;23.50;;;9.77;;
41631;SDS011;37452;51.938;4.624;2022-12-18T11:35:53;20.13;;;9.23;;
41631;SDS011;37452;51.938;4.624;2022-12-18T11:38:38;22.57;;;10.10;;
41631;SDS011;37452;51.938;4.624;2022-12-18T11:44:31;21.90;;;11.13;;
41631;SDS011;37452;51.938;4.624;2022-12-18T11:47:05;19.77;;;10.17;;
41631;SDS011;37452;51.938;4.624;2022-12-18T11:49:38;20.17;;;10.43;;
41631;SDS011;37452;51.938;4.624;2022-12-18T11:52:15;22.37;;;10.63;;
41631;SDS011;37452;51.938;4.624;2022-12-18T11:54:44;21.10;;;10.67;;
41631;SDS011;37452;51.938;4.624;2022-12-18T12:19:24;15.68;;;8.13;;
41631;SDS011;37452;51.938;4.624;2022-12-18T12:22:10;20.20;;;10.23;;
41631;SDS011;37452;51.938;4.624;2022-12-18T12:40:45;23.27;;;10.57;;
41631;SDS011;37452;51.938;4.624;2022-12-18T12:43:53;19.77;;;9.80;;
41631;SDS011;37452;51.938;4.624;2022-12-18T12:46:22;19.97;;;10.47;;
41631;SDS011;37452;51.938;4.624;2022-12-18T12:48:55;24.33;;;10.97;;
41631;SDS011;37452;51.938;4.624;2022-12-18T12:51:28;24.93;;;11.17;;
41631;SDS011;37452;51.938;4.624;2022-12-18T12:53:57;20.60;;;10.33;;
41631;SDS011;37452;51.938;4.624;2022-12-18T12:56:26;23.57;;;11.10;;
41631;SDS011;37452;51.938;4.624;2022-12-18T12:59:22;21.80;;;9.90;;
41631;SDS011;37452;51.938;4.624;2022-12-18T13:01:59;25.07;;;10.87;;
41631;SDS011;37452;51.938;4.624;2022-12-18T13:04:36;21.30;;;10.63;;
41631;SDS011;37452;51.938;4.624;2022-12-18T13:13:14;25.47;;;12.10;;
41631;SDS011;37452;51.938;4.624;2022-12-18T13:15:37;22.33;;;11.23;;
41631;SDS011;37452;51.938;4.624;2022-12-18T13:18:04;26.83;;;11.33;;
41631;SDS011;37452;51.938;4.624;2022-12-18T13:20:33;23.00;;;10.27;;
41631;SDS011;37452;51.938;4.624;2022-12-18T13:23:19;25.17;;;11.17;;
41631;SDS011;37452;51.938;4.624;2022-12-18T13:25:45;25.87;;;11.70;;
41631;SDS011;37452;51.938;4.624;2022-12-18T13:28:14;22.75;;;10.75;;
41631;SDS011;37452;51.938;4.624;2022-12-18T13:38:21;23.97;;;11.23;;
41631;SDS011;37452;51.938;4.624;2022-12-18T13:40:59;20.97;;;10.37;;
41631;SDS011;37452;51.938;4.624;2022-12-18T13:43:42;24.93;;;11.57;;
41631;SDS011;37452;51.938;4.624;2022-12-18T13:46:27;24.37;;;10.20;;
41631;SDS011;37452;51.938;4.624;2022-12-18T13:51:23;23.10;;;11.23;;
41631;SDS011;37452;51.938;4.624;2022-12-18T13:54:04;20.20;;;11.10;;
41631;SDS011;37452;51.938;4.624;2022-12-18T13:56:42;21.77;;;10.97;;
41631;SDS011;37452;51.938;4.624;2022-12-18T13:59:14;21.17;;;10.07;;
41631;SDS011;37452;51.938;4.624;2022-12-18T14:06:53;21.23;;;10.57;;
41631;SDS011;37452;51.938;4.624;2022-12-18T14:09:26;20.37;;;11.30;;
41631;SDS011;37452;51.938;4.624;2022-12-18T14:11:55;26.60;;;11.93;;
41631;SDS011;37452;51.938;4.624;2022-12-18T14:14:43;22.08;;;10.82;;
41631;SDS011;37452;51.938;4.624;2022-12-18T14:17:11;27.77;;;10.73;;
41631;SDS011;37452;51.938;4.624;2022-12-18T14:19:40;24.40;;;12.02;;
41631;SDS011;37452;51.938;4.624;2022-12-18T14:22:18;23.13;;;10.87;;
41631;SDS011;37452;51.938;4.624;2022-12-18T14:24:47;18.97;;;10.63;;
41631;SDS011;37452;51.938;4.624;2022-12-18T14:27:29;23.00;;;10.87;;
41631;SDS011;37452;51.938;4.624;2022-12-18T14:29:55;24.33;;;11.77;;
41631;SDS011;37452;51.938;4.624;2022-12-18T14:32:20;26.10;;;12.55;;
41631;SDS011;37452;51.938;4.624;2022-12-18T14:37:13;19.80;;;10.93;;
41631;SDS011;37452;51.938;4.624;2022-12-18T14:39:51;29.60;;;11.73;;
41631;SDS011;37452;51.938;4.624;2022-12-18T14:42:21;26.77;;;11.23;;
41631;SDS011;37452;51.938;4.624;2022-12-18T14:44:47;22.77;;;10.88;;
41631;SDS011;37452;51.938;4.624;2022-12-18T14:47:13;22.15;;;10.70;;
41631;SDS011;37452;51.938;4.624;2022-12-18T14:49:40;24.60;;;12.33;;
41631;SDS011;37452;51.938;4.624;2022-12-18T14:52:16;25.93;;;11.80;;
41631;SDS011;37452;51.938;4.624;2022-12-18T14:54:47;22.63;;;11.70;;
41631;SDS011;37452;51.938;4.624;2022-12-18T14:59:49;27.48;;;11.55;;
41631;SDS011;37452;51.938;4.624;2022-12-18T15:02:22;25.80;;;11.20;;
41631;SDS011;37452;51.938;4.624;2022-12-18T15:05:00;24.37;;;11.87;;
41631;SDS011;37452;51.938;4.624;2022-12-18T15:07:38;26.07;;;12.37;;
41631;SDS011;37452;51.938;4.624;2022-12-18T15:10:13;24.23;;;12.47;;
41631;SDS011;37452;51.938;4.624;2022-12-18T15:12:39;21.77;;;11.93;;
41631;SDS011;37452;51.938;4.624;2022-12-18T15:17:58;20.02;;;10.70;;
41631;SDS011;37452;51.938;4.624;2022-12-18T15:20:27;23.07;;;11.37;;
41631;SDS011;37452;51.938;4.624;2022-12-18T15:22:57;24.07;;;11.87;;
41631;SDS011;37452;51.938;4.624;2022-12-18T15:28:01;23.10;;;10.17;;
41631;SDS011;37452;51.938;4.624;2022-12-18T15:30:40;24.00;;;11.60;;
41631;SDS011;37452;51.938;4.624;2022-12-18T15:33:23;21.03;;;10.70;;
41631;SDS011;37452;51.938;4.624;2022-12-18T15:35:58;23.20;;;11.23;;
41631;SDS011;37452;51.938;4.624;2022-12-18T15:38:25;23.30;;;11.33;;
41631;SDS011;37452;51.938;4.624;2022-12-18T15:40:51;22.23;;;11.48;;
41631;SDS011;37452;51.938;4.624;2022-12-18T15:43:17;28.97;;;12.03;;
41631;SDS011;37452;51.938;4.624;2022-12-18T15:46:21;25.50;;;11.57;;
41631;SDS011;37452;51.938;4.624;2022-12-18T15:48:50;24.20;;;10.93;;
41631;SDS011;37452;51.938;4.624;2022-12-18T15:51:19;24.20;;;11.13;;
41631;SDS011;37452;51.938;4.624;2022-12-18T15:53:50;23.90;;;11.57;;
41631;SDS011;37452;51.938;4.624;2022-12-18T15:56:18;23.67;;;12.00;;
41631;SDS011;37452;51.938;4.624;2022-12-18T15:59:02;22.63;;;11.27;;
41631;SDS011;37452;51.938;4.624;2022-12-18T16:01:34;26.43;;;12.50;;
41631;SDS011;37452;51.938;4.624;2022-12-18T16:04:00;21.35;;;11.00;;
41631;SDS011;37452;51.938;4.624;2022-12-18T16:06:25;25.42;;;11.18;;
41631;SDS011;37452;51.938;4.624;2022-12-18T16:08:50;21.08;;;11.43;;
41631;SDS011;37452;51.938;4.624;2022-12-18T16:11:23;27.45;;;11.95;;
41631;SDS011;37452;51.938;4.624;2022-12-18T16:14:25;22.97;;;11.20;;
41631;SDS011;37452;51.938;4.624;2022-12-18T16:16:53;22.53;;;10.77;;
41631;SDS011;37452;51.938;4.624;2022-12-18T16:19:20;25.57;;;11.37;;
41631;SDS011;37452;51.938;4.624;2022-12-18T16:24:18;20.83;;;11.33;;
41631;SDS011;37452;51.938;4.624;2022-12-18T16:26:48;22.03;;;10.60;;
41631;SDS011;37452;51.938;4.624;2022-12-18T16:29:16;25.23;;;12.07;;
41631;SDS011;37452;51.938;4.624;2022-12-18T16:31:42;25.55;;;12.02;;
41631;SDS011;37452;51.938;4.624;2022-12-18T16:36:38;25.27;;;12.20;;
41631;SDS011;37452;51.938;4.624;2022-12-18T16:39:03;21.58;;;11.32;;
41631;SDS011;37452;51.938;4.624;2022-12-18T16:41:29;22.65;;;10.75;;
41631;SDS011;37452;51.938;4.624;2022-12-18T16:43:57;22.37;;;11.10;;
41631;SDS011;37452;51.938;4.624;2022-12-18T16:48:48;20.87;;;10.33;;
41631;SDS011;37452;51.938;4.624;2022-12-18T16:51:13;20.60;;;9.88;;
41631;SDS011;37452;51.938;4.624;2022-12-18T16:53:39;28.83;;;11.35;;
41631;SDS011;37452;51.938;4.624;2022-12-18T16:56:05;20.95;;;9.68;;
41631;SDS011;37452;51.938;4.624;2022-12-18T16:58:31;23.10;;;10.38;;
41631;SDS011;37452;51.938;4.624;2022-12-18T17:00:56;20.83;;;10.00;;
41631;SDS011;37452;51.938;4.624;2022-12-18T17:03:21;21.60;;;9.90;;
41631;SDS011;37452;51.938;4.624;2022-12-18T17:05:47;21.85;;;10.15;;
41631;SDS011;37452;51.938;4.624;2022-12-18T17:08:12;24.17;;;10.73;;
41631;SDS011;37452;51.938;4.624;2022-12-18T17:10:37;18.92;;;9.43;;
41631;SDS011;37452;51.938;4.624;2022-12-18T17:13:03;24.92;;;10.07;;
41631;SDS011;37452;51.938;4.624;2022-12-18T17:15:28;22.98;;;10.27;;
41631;SDS011;37452;51.938;4.624;2022-12-18T17:17:54;20.75;;;9.65;;
41631;SDS011;37452;51.938;4.624;2022-12-18T17:22:45;19.07;;;10.00;;
41631;SDS011;37452;51.938;4.624;2022-12-18T17:25:11;20.30;;;10.07;;
41631;SDS011;37452;51.938;4.624;2022-12-18T17:27:36;25.25;;;10.25;;
41631;SDS011;37452;51.938;4.624;2022-12-18T17:30:02;22.35;;;10.80;;
41631;SDS011;37452;51.938;4.624;2022-12-18T17:34:53;26.73;;;10.53;;
41631;SDS011;37452;51.938;4.624;2022-12-18T17:37:19;19.00;;;9.57;;
41631;SDS011;37452;51.938;4.624;2022-12-18T17:39:44;21.33;;;11.18;;
41631;SDS011;37452;51.938;4.624;2022-12-18T17:42:10;24.70;;;11.15;;
41631;SDS011;37452;51.938;4.624;2022-12-18T17:44:36;21.95;;;10.40;;